Terminal Aerodrome Forecast
Issued by NWS

Home | Current Version | Previous Version | Text Only | Print | Product List | Glossary On
Versions: 1 2 3 4 5 6 7 8 9 10 11 12 13 14
979
FTPA31 PHFO 290722 AAA
TAFHKO
TAF AMD
PHKO 290722Z 2907/3006 11007KT P6SM VCSH SCT045 BKN070
     FM291500 08004KT P6SM FEW045 SCT070
     FM292000 22010KT P6SM FEW045 SCT070=

USA.gov is the U.S. government's official web portal to all federal, state and local government web resources and services.